sensor_id;sensor_type;location;lat;lon;timestamp;pressure;altitude;pressure_sealevel;temperature;humidity
6851;BME280;3464;42.728;23.296;2023-03-19T09:52:41;95750.66;;;16.03;33.45
6851;BME280;3464;42.728;23.296;2023-03-19T09:55:22;95744.69;;;16.14;34.31
6851;BME280;3464;42.728;23.296;2023-03-19T09:57:43;95744.27;;;16.12;33.60
6851;BME280;3464;42.728;23.296;2023-03-19T10:00:28;95748.22;;;15.85;33.84
6851;BME280;3464;42.728;23.296;2023-03-19T10:02:57;95745.32;;;15.69;34.15
6851;BME280;3464;42.728;23.296;2023-03-19T10:08:11;95733.28;;;16.11;33.84
6851;BME280;3464;42.728;23.296;2023-03-19T10:15:50;95721.66;;;16.46;33.26
6851;BME280;3464;42.728;23.296;2023-03-19T10:18:19;95717.23;;;16.69;33.40
6851;BME280;3464;42.728;23.296;2023-03-19T10:20:50;95719.96;;;16.98;32.90
6851;BME280;3464;42.728;23.296;2023-03-19T10:23:43;95712.31;;;16.49;33.58
6851;BME280;3464;42.728;23.296;2023-03-19T10:26:12;95700.19;;;18.02;32.18
6851;BME280;3464;42.728;23.296;2023-03-19T10:28:39;95700.09;;;17.35;32.86
6851;BME280;3464;42.728;23.296;2023-03-19T10:31:26;95694.09;;;17.41;32.61
6851;BME280;3464;42.728;23.296;2023-03-19T10:34:27;95689.41;;;17.02;33.08
6851;BME280;3464;42.728;23.296;2023-03-19T10:37:00;95680.63;;;16.89;33.80
6851;BME280;3464;42.728;23.296;2023-03-19T10:39:26;95667.83;;;16.99;33.69
6851;BME280;3464;42.728;23.296;2023-03-19T10:44:31;95667.46;;;17.35;33.62
6851;BME280;3464;42.728;23.296;2023-03-19T10:46:58;95660.75;;;17.65;32.91
6851;BME280;3464;42.728;23.296;2023-03-19T10:49:25;95654.75;;;18.02;32.96
6851;BME280;3464;42.728;23.296;2023-03-19T10:51:52;95649.87;;;17.85;32.83
6851;BME280;3464;42.728;23.296;2023-03-19T10:54:21;95642.52;;;17.65;32.80
6851;BME280;3464;42.728;23.296;2023-03-19T10:56:47;95636.67;;;18.17;32.79
6851;BME280;3464;42.728;23.296;2023-03-19T10:59:23;95638.05;;;18.41;32.51
6851;BME280;3464;42.728;23.296;2023-03-19T11:01:54;95637.81;;;18.26;31.61
6851;BME280;3464;42.728;23.296;2023-03-19T11:04:20;95629.17;;;18.38;31.90
6851;BME280;3464;42.728;23.296;2023-03-19T11:06:49;95625.61;;;18.48;32.17
6851;BME280;3464;42.728;23.296;2023-03-19T11:09:33;95633.67;;;17.92;33.10
6851;BME280;3464;42.728;23.296;2023-03-19T11:12:06;95620.63;;;18.11;32.81
6851;BME280;3464;42.728;23.296;2023-03-19T11:14:36;95619.48;;;18.58;32.30
6851;BME280;3464;42.728;23.296;2023-03-19T11:17:04;95608.71;;;18.67;32.08
6851;BME280;3464;42.728;23.296;2023-03-19T11:19:30;95610.00;;;18.41;32.27
6851;BME280;3464;42.728;23.296;2023-03-19T11:22:01;95610.19;;;18.28;32.67
6851;BME280;3464;42.728;23.296;2023-03-19T11:24:27;95598.13;;;18.40;32.18
6851;BME280;3464;42.728;23.296;2023-03-19T11:26:54;95596.48;;;18.61;32.31
6851;BME280;3464;42.728;23.296;2023-03-19T11:29:21;95592.55;;;18.67;32.00
6851;BME280;3464;42.728;23.296;2023-03-19T11:31:50;95596.88;;;17.81;32.99
6851;BME280;3464;42.728;23.296;2023-03-19T11:34:39;95579.94;;;18.36;32.62
6851;BME280;3464;42.728;23.296;2023-03-19T11:37:07;95576.05;;;18.39;32.32
6851;BME280;3464;42.728;23.296;2023-03-19T11:39:55;95567.97;;;18.11;32.92
6851;BME280;3464;42.728;23.296;2023-03-19T11:42:41;95572.22;;;18.40;32.76
6851;BME280;3464;42.728;23.296;2023-03-19T11:47:58;95555.82;;;18.27;32.82
6851;BME280;3464;42.728;23.296;2023-03-19T11:50:59;95545.98;;;18.80;32.38
6851;BME280;3464;42.728;23.296;2023-03-19T11:53:26;95543.38;;;18.84;32.44
6851;BME280;3464;42.728;23.296;2023-03-19T11:56:01;95542.61;;;19.01;32.23
6851;BME280;3464;42.728;23.296;2023-03-19T12:01:17;95538.73;;;18.82;32.36
6851;BME280;3464;42.728;23.296;2023-03-19T12:04:05;95534.53;;;18.78;32.33
6851;BME280;3464;42.728;23.296;2023-03-19T12:06:59;95527.94;;;18.69;32.53
6851;BME280;3464;42.728;23.296;2023-03-19T12:09:28;95522.25;;;18.54;32.92
6851;BME280;3464;42.728;23.296;2023-03-19T12:12:01;95520.13;;;18.54;33.23
6851;BME280;3464;42.728;23.296;2023-03-19T12:14:36;95523.78;;;19.29;32.24
6851;BME280;3464;42.728;23.296;2023-03-19T12:17:20;95513.68;;;19.63;31.62
6851;BME280;3464;42.728;23.296;2023-03-19T12:20:04;95516.09;;;19.68;31.46
6851;BME280;3464;42.728;23.296;2023-03-19T12:25:15;95507.63;;;19.85;31.61
6851;BME280;3464;42.728;23.296;2023-03-19T12:27:40;95508.57;;;19.63;31.55
6851;BME280;3464;42.728;23.296;2023-03-19T12:30:15;95502.48;;;20.03;31.35
6851;BME280;3464;42.728;23.296;2023-03-19T12:32:58;95500.22;;;20.10;31.25
6851;BME280;3464;42.728;23.296;2023-03-19T12:35:28;95493.86;;;19.73;31.59
6851;BME280;3464;42.728;23.296;2023-03-19T12:40:56;95500.84;;;19.47;32.29
6851;BME280;3464;42.728;23.296;2023-03-19T12:43:23;95493.05;;;19.72;32.00
6851;BME280;3464;42.728;23.296;2023-03-19T12:45:48;95490.52;;;19.70;31.76
6851;BME280;3464;42.728;23.296;2023-03-19T12:48:22;95488.67;;;19.58;32.22
6851;BME280;3464;42.728;23.296;2023-03-19T12:50:49;95482.60;;;20.17;31.44
6851;BME280;3464;42.728;23.296;2023-03-19T12:53:21;95476.94;;;19.86;31.96
6851;BME280;3464;42.728;23.296;2023-03-19T12:55:44;95481.86;;;20.11;31.53
6851;BME280;3464;42.728;23.296;2023-03-19T12:58:13;95476.09;;;20.21;31.65
6851;BME280;3464;42.728;23.296;2023-03-19T13:00:47;95473.08;;;20.38;31.35
6851;BME280;3464;42.728;23.296;2023-03-19T13:03:21;95468.89;;;20.37;31.37
6851;BME280;3464;42.728;23.296;2023-03-19T13:05:58;95470.34;;;20.77;30.94
6851;BME280;3464;42.728;23.296;2023-03-19T13:08:29;95467.34;;;20.46;31.14
6851;BME280;3464;42.728;23.296;2023-03-19T13:10:54;95464.98;;;20.55;31.13
6851;BME280;3464;42.728;23.296;2023-03-19T13:13:38;95462.97;;;20.97;31.06
6851;BME280;3464;42.728;23.296;2023-03-19T13:16:23;95461.86;;;20.75;31.08
6851;BME280;3464;42.728;23.296;2023-03-19T13:18:59;95453.83;;;20.42;31.53
6851;BME280;3464;42.728;23.296;2023-03-19T13:21:28;95448.13;;;20.32;31.34
6851;BME280;3464;42.728;23.296;2023-03-19T13:26:40;95442.80;;;19.89;32.09
6851;BME280;3464;42.728;23.296;2023-03-19T13:29:13;95437.63;;;19.56;32.01
6851;BME280;3464;42.728;23.296;2023-03-19T13:31:35;95439.21;;;19.97;31.86
6851;BME280;3464;42.728;23.296;2023-03-19T13:34:05;95440.41;;;20.00;31.79
6851;BME280;3464;42.728;23.296;2023-03-19T13:36:34;95439.15;;;20.17;31.63
6851;BME280;3464;42.728;23.296;2023-03-19T13:39:00;95440.93;;;20.30;31.54
6851;BME280;3464;42.728;23.296;2023-03-19T13:41:47;95434.70;;;20.55;31.07
6851;BME280;3464;42.728;23.296;2023-03-19T13:44:34;95437.62;;;20.58;30.50
6851;BME280;3464;42.728;23.296;2023-03-19T13:47:00;95437.59;;;20.88;30.39
6851;BME280;3464;42.728;23.296;2023-03-19T13:49:31;95430.77;;;20.89;30.35
6851;BME280;3464;42.728;23.296;2023-03-19T13:51:59;95427.65;;;20.63;30.64
6851;BME280;3464;42.728;23.296;2023-03-19T13:54:32;95419.45;;;20.98;30.40
6851;BME280;3464;42.728;23.296;2023-03-19T13:57:03;95426.76;;;20.80;30.60
6851;BME280;3464;42.728;23.296;2023-03-19T13:59:31;95423.11;;;21.04;30.40
6851;BME280;3464;42.728;23.296;2023-03-19T14:01:57;95416.79;;;21.43;30.04
6851;BME280;3464;42.728;23.296;2023-03-19T14:04:29;95422.76;;;21.44;30.01
6851;BME280;3464;42.728;23.296;2023-03-19T14:06:56;95419.69;;;21.46;30.05
6851;BME280;3464;42.728;23.296;2023-03-19T14:09:34;95408.19;;;21.32;30.42
6851;BME280;3464;42.728;23.296;2023-03-19T14:24:41;95397.87;;;21.60;30.29
6851;BME280;3464;42.728;23.296;2023-03-19T14:27:29;95399.52;;;21.49;30.61
6851;BME280;3464;42.728;23.296;2023-03-19T15:15:56;95393.19;;;20.62;31.79
6851;BME280;3464;42.728;23.296;2023-03-19T15:18:22;95393.12;;;20.33;31.84
6851;BME280;3464;42.728;23.296;2023-03-19T15:20:53;95339.64;;;19.94;32.10
6851;BME280;3464;42.728;23.296;2023-03-19T15:23:23;95397.16;;;20.57;31.67
6851;BME280;3464;42.728;23.296;2023-03-19T15:25:50;95382.55;;;20.31;31.85
6851;BME280;3464;42.728;23.296;2023-03-19T15:28:17;95391.87;;;20.47;31.73
6851;BME280;3464;42.728;23.296;2023-03-19T15:30:57;95399.02;;;20.20;32.32
6851;BME280;3464;42.728;23.296;2023-03-19T15:33:32;95403.63;;;20.54;32.02
6851;BME280;3464;42.728;23.296;2023-03-19T15:36:11;95405.46;;;20.50;31.79
6851;BME280;3464;42.728;23.296;2023-03-19T15:38:47;95401.92;;;20.54;31.76
6851;BME280;3464;42.728;23.296;2023-03-19T15:41:15;95400.70;;;20.52;31.71
6851;BME280;3464;42.728;23.296;2023-03-19T15:44:00;95402.80;;;20.38;32.00
6851;BME280;3464;42.728;23.296;2023-03-19T15:46:29;95403.94;;;20.28;32.10
6851;BME280;3464;42.728;23.296;2023-03-19T15:49:01;95399.45;;;20.20;32.19
6851;BME280;3464;42.728;23.296;2023-03-19T15:51:26;95398.17;;;20.20;32.26
6851;BME280;3464;42.728;23.296;2023-03-19T15:53:55;95400.53;;;20.12;32.35
6851;BME280;3464;42.728;23.296;2023-03-19T15:56:25;95399.42;;;19.70;32.87
6851;BME280;3464;42.728;23.296;2023-03-19T15:58:53;95404.50;;;19.72;32.94
6851;BME280;3464;42.728;23.296;2023-03-19T16:01:26;95403.75;;;19.66;32.94
6851;BME280;3464;42.728;23.296;2023-03-19T16:04:00;95404.58;;;19.52;33.18
6851;BME280;3464;42.728;23.296;2023-03-19T16:06:28;95405.91;;;19.30;33.54
6851;BME280;3464;42.728;23.296;2023-03-19T16:08:55;95403.37;;;19.10;33.73
6851;BME280;3464;42.728;23.296;2023-03-19T16:11:28;95413.41;;;18.97;34.26
6851;BME280;3464;42.728;23.296;2023-03-19T16:13:55;95411.66;;;18.81;34.03
6851;BME280;3464;42.728;23.296;2023-03-19T16:16:23;95407.08;;;18.76;34.08
6851;BME280;3464;42.728;23.296;2023-03-19T16:18:53;95409.17;;;18.58;34.29
6851;BME280;3464;42.728;23.296;2023-03-19T16:21:22;95413.53;;;18.51;34.42
6851;BME280;3464;42.728;23.296;2023-03-19T16:23:50;95417.30;;;18.31;34.70
6851;BME280;3464;42.728;23.296;2023-03-19T16:26:20;95416.20;;;18.45;34.41
6851;BME280;3464;42.728;23.296;2023-03-19T16:28:47;95416.17;;;18.47;34.49
6851;BME280;3464;42.728;23.296;2023-03-19T16:31:25;95415.66;;;18.27;34.82
6851;BME280;3464;42.728;23.296;2023-03-19T16:33:51;95418.23;;;18.26;34.78
6851;BME280;3464;42.728;23.296;2023-03-19T16:36:18;95401.95;;;18.12;34.82
6851;BME280;3464;42.728;23.296;2023-03-19T16:38:54;95419.00;;;18.30;34.79
6851;BME280;3464;42.728;23.296;2023-03-19T16:41:29;95424.06;;;18.32;34.76
6851;BME280;3464;42.728;23.296;2023-03-19T16:44:00;95419.84;;;18.09;35.11
6851;BME280;3464;42.728;23.296;2023-03-19T16:46:30;95421.50;;;17.87;35.35
6851;BME280;3464;42.728;23.296;2023-03-19T16:48:57;95427.76;;;17.68;35.62
6851;BME280;3464;42.728;23.296;2023-03-19T16:51:24;95426.02;;;17.71;35.65
6851;BME280;3464;42.728;23.296;2023-03-19T16:53:51;95430.70;;;17.69;35.57
6851;BME280;3464;42.728;23.296;2023-03-19T16:56:18;95432.92;;;17.64;35.59
6851;BME280;3464;42.728;23.296;2023-03-19T16:58:47;95432.52;;;17.62;35.71
6851;BME280;3464;42.728;23.296;2023-03-19T17:01:18;95433.48;;;17.54;35.86
6851;BME280;3464;42.728;23.296;2023-03-19T17:03:45;95428.75;;;17.59;35.86
6851;BME280;3464;42.728;23.296;2023-03-19T17:06:14;95440.94;;;17.66;35.88
6851;BME280;3464;42.728;23.296;2023-03-19T17:08:40;95438.48;;;17.60;36.17
6851;BME280;3464;42.728;23.296;2023-03-19T17:11:17;95435.25;;;17.49;36.27
6851;BME280;3464;42.728;23.296;2023-03-19T17:13:47;95417.83;;;17.22;36.45
6851;BME280;3464;42.728;23.296;2023-03-19T17:16:14;95452.54;;;17.27;36.61
6851;BME280;3464;42.728;23.296;2023-03-19T17:18:41;95451.48;;;17.12;36.90
6851;BME280;3464;42.728;23.296;2023-03-19T17:21:11;95460.16;;;16.98;37.27
6851;BME280;3464;42.728;23.296;2023-03-19T17:23:44;95457.64;;;16.94;37.40
6851;BME280;3464;42.728;23.296;2023-03-19T17:26:15;95452.09;;;16.65;37.83
6851;BME280;3464;42.728;23.296;2023-03-19T17:28:41;95459.70;;;16.65;38.03
6851;BME280;3464;42.728;23.296;2023-03-19T17:31:32;95458.17;;;16.52;38.26
6851;BME280;3464;42.728;23.296;2023-03-19T17:36:35;95463.66;;;16.10;39.46
6851;BME280;3464;42.728;23.296;2023-03-19T17:39:01;95465.09;;;15.94;40.02
6851;BME280;3464;42.728;23.296;2023-03-19T17:41:28;95467.45;;;16.11;40.02
6851;BME280;3464;42.728;23.296;2023-03-19T17:43:56;95474.44;;;15.87;40.51
6851;BME280;3464;42.728;23.296;2023-03-19T17:46:24;95469.94;;;15.68;40.94
6851;BME280;3464;42.728;23.296;2023-03-19T17:48:49;95467.14;;;15.50;41.31
6851;BME280;3464;42.728;23.296;2023-03-19T17:51:16;95473.09;;;15.41;41.70
6851;BME280;3464;42.728;23.296;2023-03-19T17:53:43;95479.48;;;15.30;42.02
6851;BME280;3464;42.728;23.296;2023-03-19T17:56:12;95486.65;;;15.41;41.76
6851;BME280;3464;42.728;23.296;2023-03-19T17:58:36;95483.66;;;15.41;41.90
6851;BME280;3464;42.728;23.296;2023-03-19T18:01:02;95481.58;;;15.37;42.08
6851;BME280;3464;42.728;23.296;2023-03-19T18:03:29;95483.33;;;15.22;42.29
6851;BME280;3464;42.728;23.296;2023-03-19T18:05:56;95484.69;;;15.08;42.60
6851;BME280;3464;42.728;23.296;2023-03-19T18:08:23;95484.61;;;15.21;42.51
6851;BME280;3464;42.728;23.296;2023-03-19T18:10:50;95491.86;;;15.13;42.74
6851;BME280;3464;42.728;23.296;2023-03-19T18:13:16;95496.45;;;15.23;43.01
6851;BME280;3464;42.728;23.296;2023-03-19T18:15:42;95494.03;;;14.99;43.47
6851;BME280;3464;42.728;23.296;2023-03-19T18:18:14;95499.06;;;15.07;43.24
6851;BME280;3464;42.728;23.296;2023-03-19T18:20:39;95495.96;;;15.31;42.46
6851;BME280;3464;42.728;23.296;2023-03-19T18:23:09;95497.71;;;15.21;42.53
6851;BME280;3464;42.728;23.296;2023-03-19T18:25:33;95502.83;;;15.16;42.58
6851;BME280;3464;42.728;23.296;2023-03-19T18:28:01;95507.02;;;15.21;42.63
6851;BME280;3464;42.728;23.296;2023-03-19T18:30:28;95508.75;;;15.10;42.99
6851;BME280;3464;42.728;23.296;2023-03-19T18:32:56;95514.69;;;15.10;42.90
6851;BME280;3464;42.728;23.296;2023-03-19T18:35:28;95521.07;;;14.96;43.11
6851;BME280;3464;42.728;23.296;2023-03-19T18:37:53;95521.22;;;14.57;43.85
6851;BME280;3464;42.728;23.296;2023-03-19T18:40:21;95529.23;;;14.64;43.78
6851;BME280;3464;42.728;23.296;2023-03-19T18:42:48;95528.81;;;14.63;43.84
6851;BME280;3464;42.728;23.296;2023-03-19T18:45:15;95528.81;;;14.60;43.79
6851;BME280;3464;42.728;23.296;2023-03-19T18:47:42;95531.41;;;14.29;44.27
6851;BME280;3464;42.728;23.296;2023-03-19T18:50:16;95533.09;;;14.19;44.49
6851;BME280;3464;42.728;23.296;2023-03-19T18:52:43;95533.09;;;13.98;44.77
6851;BME280;3464;42.728;23.296;2023-03-19T18:55:10;95533.09;;;14.06;44.84
6851;BME280;3464;42.728;23.296;2023-03-19T18:57:38;95536.89;;;14.15;44.65
6851;BME280;3464;42.728;23.296;2023-03-19T19:00:04;95541.94;;;14.08;44.87
6851;BME280;3464;42.728;23.296;2023-03-19T19:02:32;95546.61;;;13.94;45.24
6851;BME280;3464;42.728;23.296;2023-03-19T19:04:57;95547.44;;;13.74;45.87
6851;BME280;3464;42.728;23.296;2023-03-19T19:07:24;95548.26;;;13.74;45.91
6851;BME280;3464;42.728;23.296;2023-03-19T19:09:51;95546.12;;;13.53;46.21
6851;BME280;3464;42.728;23.296;2023-03-19T19:12:17;95550.77;;;13.47;46.24
6851;BME280;3464;42.728;23.296;2023-03-19T19:14:44;95555.81;;;13.48;46.50
6851;BME280;3464;42.728;23.296;2023-03-19T19:17:17;95556.25;;;13.50;46.47
6851;BME280;3464;42.728;23.296;2023-03-19T19:19:43;95564.67;;;13.49;46.36
6851;BME280;3464;42.728;23.296;2023-03-19T19:22:15;95562.11;;;13.37;46.98
6851;BME280;3464;42.728;23.296;2023-03-19T19:24:42;95557.48;;;13.35;47.20
6851;BME280;3464;42.728;23.296;2023-03-19T19:27:14;95557.42;;;13.23;47.12
6851;BME280;3464;42.728;23.296;2023-03-19T19:29:37;95567.93;;;13.06;47.58
6851;BME280;3464;42.728;23.296;2023-03-19T19:32:05;95572.55;;;13.03;47.87
6851;BME280;3464;42.728;23.296;2023-03-19T19:34:35;95570.39;;;12.97;48.07
6851;BME280;3464;42.728;23.296;2023-03-19T19:37:02;95569.62;;;13.16;47.76
6851;BME280;3464;42.728;23.296;2023-03-19T19:39:29;95573.86;;;13.23;47.73
6851;BME280;3464;42.728;23.296;2023-03-19T19:41:55;95574.27;;;13.15;47.89
6851;BME280;3464;42.728;23.296;2023-03-19T19:44:22;95570.86;;;13.08;47.98
6851;BME280;3464;42.728;23.296;2023-03-19T19:46:49;95569.03;;;12.79;48.55
6851;BME280;3464;42.728;23.296;2023-03-19T19:49:16;95561.90;;;12.86;48.67
6851;BME280;3464;42.728;23.296;2023-03-19T19:51:43;95569.86;;;12.77;48.89
6851;BME280;3464;42.728;23.296;2023-03-19T19:54:10;95563.06;;;12.66;49.16
6851;BME280;3464;42.728;23.296;2023-03-19T19:56:36;95564.77;;;12.68;49.31
6851;BME280;3464;42.728;23.296;2023-03-19T19:59:04;95563.04;;;12.61;49.69
6851;BME280;3464;42.728;23.296;2023-03-19T20:01:30;95569.70;;;12.48;49.97
6851;BME280;3464;42.728;23.296;2023-03-19T20:03:57;95572.17;;;12.38;50.15
6851;BME280;3464;42.728;23.296;2023-03-19T20:06:24;95569.66;;;12.40;50.15
6851;BME280;3464;42.728;23.296;2023-03-19T20:08:51;95575.98;;;12.43;50.07
6851;BME280;3464;42.728;23.296;2023-03-19T20:11:18;95573.00;;;12.36;50.25
6851;BME280;3464;42.728;23.296;2023-03-19T20:13:45;95575.92;;;12.36;50.44
6851;BME280;3464;42.728;23.296;2023-03-19T20:16:11;95588.55;;;12.32;50.96
6851;BME280;3464;42.728;23.296;2023-03-19T20:18:38;95590.27;;;12.39;51.20
6851;BME280;3464;42.728;23.296;2023-03-19T20:21:05;95588.08;;;12.29;51.44
6851;BME280;3464;42.728;23.296;2023-03-19T20:23:32;95596.09;;;12.29;51.54
6851;BME280;3464;42.728;23.296;2023-03-19T20:25:59;95601.07;;;12.22;51.66
6851;BME280;3464;42.728;23.296;2023-03-19T20:28:29;95609.02;;;12.14;52.20
6851;BME280;3464;42.728;23.296;2023-03-19T20:30:56;95610.69;;;12.16;51.83
6851;BME280;3464;42.728;23.296;2023-03-19T20:33:23;95616.48;;;12.02;51.98
6851;BME280;3464;42.728;23.296;2023-03-19T20:35:49;95614.34;;;11.98;51.93
6851;BME280;3464;42.728;23.296;2023-03-19T20:38:16;95624.42;;;11.98;52.12
6851;BME280;3464;42.728;23.296;2023-03-19T20:40:45;95621.44;;;11.91;52.25
6851;BME280;3464;42.728;23.296;2023-03-19T20:43:16;95618.98;;;12.01;52.04
6851;BME280;3464;42.728;23.296;2023-03-19T20:45:39;95619.78;;;11.96;52.42
6851;BME280;3464;42.728;23.296;2023-03-19T20:48:10;95620.55;;;11.87;52.53
6851;BME280;3464;42.728;23.296;2023-03-19T20:50:33;95615.16;;;11.93;52.26
6851;BME280;3464;42.728;23.296;2023-03-19T20:53:01;95612.54;;;11.85;52.52
6851;BME280;3464;42.728;23.296;2023-03-19T20:55:31;95619.61;;;11.79;52.83
6851;BME280;3464;42.728;23.296;2023-03-19T20:57:57;95621.32;;;11.81;52.79
6851;BME280;3464;42.728;23.296;2023-03-19T21:00:25;95624.61;;;11.72;52.90
6851;BME280;3464;42.728;23.296;2023-03-19T21:02:51;95625.03;;;11.72;52.93
6851;BME280;3464;42.728;23.296;2023-03-19T21:05:17;95622.56;;;12.26;52.22
6851;BME280;3464;42.728;23.296;2023-03-19T21:07:44;95615.34;;;11.70;53.19
6851;BME280;3464;42.728;23.296;2023-03-19T21:10:35;95619.47;;;11.63;53.17
6851;BME280;3464;42.728;23.296;2023-03-19T21:13:01;95618.22;;;11.62;53.19
6851;BME280;3464;42.728;23.296;2023-03-19T21:15:28;95620.56;;;11.51;53.74
6851;BME280;3464;42.728;23.296;2023-03-19T21:17:55;95627.23;;;11.45;53.69
6851;BME280;3464;42.728;23.296;2023-03-19T21:20:24;95623.86;;;11.44;53.93
6851;BME280;3464;42.728;23.296;2023-03-19T21:22:50;95627.55;;;11.37;53.92
6851;BME280;3464;42.728;23.296;2023-03-19T21:25:19;95619.91;;;11.28;54.47
6851;BME280;3464;42.728;23.296;2023-03-19T21:27:46;95621.58;;;11.27;54.35
6851;BME280;3464;42.728;23.296;2023-03-19T21:30:13;95623.23;;;11.27;54.13
6851;BME280;3464;42.728;23.296;2023-03-19T21:32:40;95625.72;;;11.24;54.03
6851;BME280;3464;42.728;23.296;2023-03-19T21:35:16;95628.50;;;11.10;54.31
6851;BME280;3464;42.728;23.296;2023-03-19T21:37:44;95625.92;;;11.06;54.47
6851;BME280;3464;42.728;23.296;2023-03-19T21:40:13;95623.80;;;11.02;54.66
6851;BME280;3464;42.728;23.296;2023-03-19T21:42:40;95618.23;;;10.94;55.03
6851;BME280;3464;42.728;23.296;2023-03-19T21:45:12;95618.86;;;10.78;55.30
6851;BME280;3464;42.728;23.296;2023-03-19T21:47:36;95629.02;;;10.85;55.59
6851;BME280;3464;42.728;23.296;2023-03-19T21:50:03;95624.33;;;10.79;55.76
6851;BME280;3464;42.728;23.296;2023-03-19T21:52:30;95627.20;;;10.75;56.15
6851;BME280;3464;42.728;23.296;2023-03-19T21:54:57;95631.26;;;10.65;56.32
6851;BME280;3464;42.728;23.296;2023-03-19T21:57:24;95634.16;;;10.62;56.39
6851;BME280;3464;42.728;23.296;2023-03-19T21:59:51;95636.59;;;10.55;56.29
6851;BME280;3464;42.728;23.296;2023-03-19T22:02:36;95637.28;;;10.47;56.80
6851;BME280;3464;42.728;23.296;2023-03-19T22:04:59;95621.37;;;10.49;56.73
6851;BME280;3464;42.728;23.296;2023-03-19T22:07:26;95634.25;;;10.39;57.01
6851;BME280;3464;42.728;23.296;2023-03-19T22:09:53;95626.59;;;10.61;56.68
6851;BME280;3464;42.728;23.296;2023-03-19T22:12:24;95619.76;;;10.52;57.00
6851;BME280;3464;42.728;23.296;2023-03-19T22:14:50;95620.14;;;10.50;57.07
6851;BME280;3464;42.728;23.296;2023-03-19T22:17:20;95626.41;;;10.49;57.15
6851;BME280;3464;42.728;23.296;2023-03-19T22:19:46;95631.39;;;10.46;57.50
6851;BME280;3464;42.728;23.296;2023-03-19T22:22:14;95625.48;;;10.42;57.60
6851;BME280;3464;42.728;23.296;2023-03-19T22:24:40;95628.05;;;10.46;57.56
6851;BME280;3464;42.728;23.296;2023-03-19T22:27:09;95633.06;;;10.44;58.19
6851;BME280;3464;42.728;23.296;2023-03-19T22:29:35;95630.23;;;10.51;57.81
6851;BME280;3464;42.728;23.296;2023-03-19T22:32:01;95625.08;;;10.43;58.06
6851;BME280;3464;42.728;23.296;2023-03-19T22:34:28;95624.25;;;10.44;57.83
6851;BME280;3464;42.728;23.296;2023-03-19T22:36:55;95625.84;;;10.39;57.89
6851;BME280;3464;42.728;23.296;2023-03-19T22:39:22;95621.20;;;10.38;57.70
6851;BME280;3464;42.728;23.296;2023-03-19T22:41:48;95624.25;;;10.44;57.29
6851;BME280;3464;42.728;23.296;2023-03-19T22:44:25;95622.11;;;10.42;57.01
6851;BME280;3464;42.728;23.296;2023-03-19T22:46:51;95618.36;;;10.42;56.68
6851;BME280;3464;42.728;23.296;2023-03-19T22:49:18;95626.36;;;10.45;56.90
6851;BME280;3464;42.728;23.296;2023-03-19T22:51:44;95625.36;;;10.35;57.49
6851;BME280;3464;42.728;23.296;2023-03-19T22:54:11;95622.35;;;10.30;57.87
6851;BME280;3464;42.728;23.296;2023-03-19T22:56:38;95621.49;;;10.29;57.57
6851;BME280;3464;42.728;23.296;2023-03-19T22:59:05;95617.98;;;10.19;57.92
6851;BME280;3464;42.728;23.296;2023-03-19T23:01:43;95621.18;;;10.09;58.21
6851;BME280;3464;42.728;23.296;2023-03-19T23:04:14;95595.28;;;9.65;59.39
6851;BME280;3464;42.728;23.296;2023-03-19T23:06:41;95620.11;;;9.97;58.53
6851;BME280;3464;42.728;23.296;2023-03-19T23:09:15;95620.39;;;9.88;58.71
6851;BME280;3464;42.728;23.296;2023-03-19T23:11:40;95621.70;;;9.91;58.63
6851;BME280;3464;42.728;23.296;2023-03-19T23:14:07;95623.49;;;9.74;59.28
6851;BME280;3464;42.728;23.296;2023-03-19T23:16:35;95624.52;;;9.84;58.99
6851;BME280;3464;42.728;23.296;2023-03-19T23:19:01;95623.58;;;9.78;59.20
6851;BME280;3464;42.728;23.296;2023-03-19T23:21:28;95620.13;;;9.73;59.50
6851;BME280;3464;42.728;23.296;2023-03-19T23:23:55;95623.89;;;9.73;59.49
6851;BME280;3464;42.728;23.296;2023-03-19T23:26:24;95621.73;;;9.68;59.86
6851;BME280;3464;42.728;23.296;2023-03-19T23:28:50;95621.46;;;9.78;59.20
6851;BME280;3464;42.728;23.296;2023-03-19T23:31:17;95622.70;;;9.75;59.20
6851;BME280;3464;42.728;23.296;2023-03-19T23:33:44;95628.98;;;9.76;59.06
6851;BME280;3464;42.728;23.296;2023-03-19T23:36:11;95628.73;;;9.85;58.60
6851;BME280;3464;42.728;23.296;2023-03-19T23:38:38;95622.32;;;9.78;58.89
6851;BME280;3464;42.728;23.296;2023-03-19T23:41:05;95626.17;;;9.83;58.56
6851;BME280;3464;42.728;23.296;2023-03-19T23:43:31;95622.83;;;9.83;58.70
6851;BME280;3464;42.728;23.296;2023-03-19T23:45:58;95621.52;;;9.81;58.60
6851;BME280;3464;42.728;23.296;2023-03-19T23:48:27;95619.72;;;9.73;58.56
6851;BME280;3464;42.728;23.296;2023-03-19T23:50:51;95616.67;;;9.66;59.01
6851;BME280;3464;42.728;23.296;2023-03-19T23:53:22;95607.37;;;9.61;58.79
6851;BME280;3464;42.728;23.296;2023-03-19T23:55:51;95610.31;;;9.62;58.80
6851;BME280;3464;42.728;23.296;2023-03-19T23:58:17;95601.11;;;9.63;58.75
